sensor_id;sensor_type;location;lat;lon;timestamp;P1;durP1;ratioP1;P2;durP2;ratioP2
46439;SDS011;32138;50.966;6.968;2022-11-03T00:00:37;11.82;;;4.95;;
46439;SDS011;32138;50.966;6.968;2022-11-03T00:01:39;14.60;;;4.65;;
46439;SDS011;32138;50.966;6.968;2022-11-03T00:02:42;17.05;;;4.85;;
46439;SDS011;32138;50.966;6.968;2022-11-03T00:03:45;13.82;;;5.05;;
46439;SDS011;32138;50.966;6.968;2022-11-03T00:04:46;15.70;;;4.18;;
46439;SDS011;32138;50.966;6.968;2022-11-03T00:05:47;9.48;;;4.15;;
46439;SDS011;32138;50.966;6.968;2022-11-03T00:07:05;12.95;;;4.45;;
46439;SDS011;32138;50.966;6.968;2022-11-03T00:08:06;12.18;;;4.55;;
46439;SDS011;32138;50.966;6.968;2022-11-03T00:09:08;13.10;;;4.40;;
46439;SDS011;32138;50.966;6.968;2022-11-03T00:10:11;15.82;;;4.55;;
46439;SDS011;32138;50.966;6.968;2022-11-03T00:11:12;13.40;;;4.30;;
46439;SDS011;32138;50.966;6.968;2022-11-03T00:12:14;13.10;;;4.70;;
46439;SDS011;32138;50.966;6.968;2022-11-03T00:13:14;15.00;;;4.28;;
46439;SDS011;32138;50.966;6.968;2022-11-03T00:14:15;12.00;;;4.18;;
46439;SDS011;32138;50.966;6.968;2022-11-03T00:15:17;11.95;;;4.97;;
46439;SDS011;32138;50.966;6.968;2022-11-03T00:16:18;10.55;;;3.90;;
46439;SDS011;32138;50.966;6.968;2022-11-03T00:17:19;11.50;;;4.53;;
46439;SDS011;32138;50.966;6.968;2022-11-03T00:18:20;14.52;;;5.13;;
46439;SDS011;32138;50.966;6.968;2022-11-03T00:19:20;11.57;;;4.90;;
46439;SDS011;32138;50.966;6.968;2022-11-03T00:20:21;15.43;;;5.13;;
46439;SDS011;32138;50.966;6.968;2022-11-03T00:21:22;16.10;;;4.80;;
46439;SDS011;32138;50.966;6.968;2022-11-03T00:22:23;18.00;;;5.05;;
46439;SDS011;32138;50.966;6.968;2022-11-03T00:23:27;12.52;;;4.28;;
46439;SDS011;32138;50.966;6.968;2022-11-03T00:24:30;16.00;;;5.25;;
46439;SDS011;32138;50.966;6.968;2022-11-03T00:25:31;16.25;;;4.07;;
46439;SDS011;32138;50.966;6.968;2022-11-03T00:26:32;11.43;;;3.92;;
46439;SDS011;32138;50.966;6.968;2022-11-03T00:27:35;19.77;;;4.85;;
46439;SDS011;32138;50.966;6.968;2022-11-03T00:28:36;16.30;;;4.50;;
46439;SDS011;32138;50.966;6.968;2022-11-03T00:29:37;17.15;;;4.65;;
46439;SDS011;32138;50.966;6.968;2022-11-03T00:30:38;13.68;;;4.70;;
46439;SDS011;32138;50.966;6.968;2022-11-03T00:31:39;12.73;;;4.95;;
46439;SDS011;32138;50.966;6.968;2022-11-03T00:32:43;10.25;;;4.18;;
46439;SDS011;32138;50.966;6.968;2022-11-03T00:33:44;16.20;;;5.20;;
46439;SDS011;32138;50.966;6.968;2022-11-03T00:34:45;19.58;;;5.13;;
46439;SDS011;32138;50.966;6.968;2022-11-03T00:35:46;13.90;;;4.30;;
46439;SDS011;32138;50.966;6.968;2022-11-03T00:36:46;10.77;;;4.15;;
46439;SDS011;32138;50.966;6.968;2022-11-03T00:37:47;15.10;;;4.30;;
46439;SDS011;32138;50.966;6.968;2022-11-03T00:38:48;11.45;;;3.97;;
46439;SDS011;32138;50.966;6.968;2022-11-03T00:39:49;16.35;;;4.97;;
46439;SDS011;32138;50.966;6.968;2022-11-03T00:40:54;12.48;;;4.50;;
46439;SDS011;32138;50.966;6.968;2022-11-03T00:41:56;11.43;;;3.95;;
46439;SDS011;32138;50.966;6.968;2022-11-03T00:42:57;10.70;;;4.43;;
46439;SDS011;32138;50.966;6.968;2022-11-03T00:43:58;12.90;;;4.20;;
46439;SDS011;32138;50.966;6.968;2022-11-03T00:44:59;12.35;;;4.00;;
46439;SDS011;32138;50.966;6.968;2022-11-03T00:46:00;20.08;;;4.35;;
46439;SDS011;32138;50.966;6.968;2022-11-03T00:47:02;15.18;;;4.82;;
46439;SDS011;32138;50.966;6.968;2022-11-03T00:48:02;10.68;;;4.13;;
46439;SDS011;32138;50.966;6.968;2022-11-03T00:49:22;21.42;;;4.05;;
46439;SDS011;32138;50.966;6.968;2022-11-03T00:50:23;11.88;;;4.38;;
46439;SDS011;32138;50.966;6.968;2022-11-03T00:51:25;15.50;;;4.05;;
46439;SDS011;32138;50.966;6.968;2022-11-03T00:52:29;17.13;;;4.78;;
46439;SDS011;32138;50.966;6.968;2022-11-03T00:53:30;14.18;;;4.82;;
46439;SDS011;32138;50.966;6.968;2022-11-03T00:54:33;16.15;;;4.60;;
46439;SDS011;32138;50.966;6.968;2022-11-03T00:55:33;17.25;;;4.57;;
46439;SDS011;32138;50.966;6.968;2022-11-03T00:56:35;14.90;;;5.20;;
46439;SDS011;32138;50.966;6.968;2022-11-03T00:57:38;12.55;;;3.88;;
46439;SDS011;32138;50.966;6.968;2022-11-03T00:58:40;13.40;;;4.50;;
46439;SDS011;32138;50.966;6.968;2022-11-03T00:59:41;12.55;;;4.93;;
46439;SDS011;32138;50.966;6.968;2022-11-03T01:00:42;10.38;;;4.18;;
46439;SDS011;32138;50.966;6.968;2022-11-03T01:01:43;12.90;;;5.10;;
46439;SDS011;32138;50.966;6.968;2022-11-03T01:02:44;11.10;;;4.20;;
46439;SDS011;32138;50.966;6.968;2022-11-03T01:03:45;11.77;;;3.95;;
46439;SDS011;32138;50.966;6.968;2022-11-03T01:05:10;14.93;;;4.53;;
46439;SDS011;32138;50.966;6.968;2022-11-03T01:06:30;14.68;;;4.30;;
46439;SDS011;32138;50.966;6.968;2022-11-03T01:07:51;10.15;;;5.05;;
46439;SDS011;32138;50.966;6.968;2022-11-03T01:08:52;14.52;;;5.53;;
46439;SDS011;32138;50.966;6.968;2022-11-03T01:09:53;18.48;;;4.50;;
46439;SDS011;32138;50.966;6.968;2022-11-03T01:10:54;10.07;;;4.35;;
46439;SDS011;32138;50.966;6.968;2022-11-03T01:12:15;14.18;;;4.95;;
46439;SDS011;32138;50.966;6.968;2022-11-03T01:13:17;13.77;;;4.65;;
46439;SDS011;32138;50.966;6.968;2022-11-03T01:14:18;14.52;;;5.57;;
46439;SDS011;32138;50.966;6.968;2022-11-03T01:15:19;14.52;;;4.85;;
46439;SDS011;32138;50.966;6.968;2022-11-03T01:16:20;13.63;;;5.18;;
46439;SDS011;32138;50.966;6.968;2022-11-03T01:17:22;11.35;;;4.80;;
46439;SDS011;32138;50.966;6.968;2022-11-03T01:18:25;22.40;;;5.28;;
46439;SDS011;32138;50.966;6.968;2022-11-03T01:19:26;13.93;;;5.47;;
46439;SDS011;32138;50.966;6.968;2022-11-03T01:20:27;15.57;;;5.18;;
46439;SDS011;32138;50.966;6.968;2022-11-03T01:21:27;12.52;;;4.50;;
46439;SDS011;32138;50.966;6.968;2022-11-03T01:22:28;13.80;;;5.07;;
46439;SDS011;32138;50.966;6.968;2022-11-03T01:23:29;14.55;;;4.60;;
46439;SDS011;32138;50.966;6.968;2022-11-03T01:24:30;17.17;;;5.95;;
46439;SDS011;32138;50.966;6.968;2022-11-03T01:25:30;11.40;;;4.53;;
46439;SDS011;32138;50.966;6.968;2022-11-03T01:26:31;13.63;;;5.50;;
46439;SDS011;32138;50.966;6.968;2022-11-03T01:27:33;13.80;;;4.80;;
46439;SDS011;32138;50.966;6.968;2022-11-03T01:28:35;15.63;;;5.30;;
46439;SDS011;32138;50.966;6.968;2022-11-03T01:29:37;9.73;;;4.40;;
46439;SDS011;32138;50.966;6.968;2022-11-03T01:30:38;21.10;;;5.45;;
46439;SDS011;32138;50.966;6.968;2022-11-03T01:31:39;16.85;;;5.05;;
46439;SDS011;32138;50.966;6.968;2022-11-03T01:32:40;11.70;;;5.05;;
46439;SDS011;32138;50.966;6.968;2022-11-03T01:33:41;15.07;;;6.15;;
46439;SDS011;32138;50.966;6.968;2022-11-03T01:34:44;17.10;;;6.05;;
46439;SDS011;32138;50.966;6.968;2022-11-03T01:35:45;13.48;;;5.55;;
46439;SDS011;32138;50.966;6.968;2022-11-03T01:36:46;13.57;;;5.72;;
46439;SDS011;32138;50.966;6.968;2022-11-03T01:37:48;18.60;;;6.45;;
46439;SDS011;32138;50.966;6.968;2022-11-03T01:38:48;13.10;;;5.43;;
46439;SDS011;32138;50.966;6.968;2022-11-03T01:39:49;17.83;;;6.00;;
46439;SDS011;32138;50.966;6.968;2022-11-03T01:40:50;13.95;;;5.97;;
46439;SDS011;32138;50.966;6.968;2022-11-03T01:41:51;13.02;;;5.22;;
46439;SDS011;32138;50.966;6.968;2022-11-03T01:42:52;18.10;;;6.30;;
46439;SDS011;32138;50.966;6.968;2022-11-03T01:45:06;15.23;;;5.78;;
46439;SDS011;32138;50.966;6.968;2022-11-03T01:46:15;16.15;;;5.55;;
46439;SDS011;32138;50.966;6.968;2022-11-03T01:48:27;9.77;;;4.63;;
46439;SDS011;32138;50.966;6.968;2022-11-03T01:51:03;19.88;;;5.15;;
46439;SDS011;32138;50.966;6.968;2022-11-03T01:52:17;15.70;;;5.45;;
46439;SDS011;32138;50.966;6.968;2022-11-03T01:53:30;12.77;;;4.97;;
46439;SDS011;32138;50.966;6.968;2022-11-03T01:54:31;14.98;;;5.40;;
46439;SDS011;32138;50.966;6.968;2022-11-03T01:55:34;14.88;;;5.25;;
46439;SDS011;32138;50.966;6.968;2022-11-03T01:56:40;13.93;;;5.00;;
46439;SDS011;32138;50.966;6.968;2022-11-03T01:57:49;13.90;;;5.60;;
46439;SDS011;32138;50.966;6.968;2022-11-03T01:59:01;14.60;;;5.25;;
46439;SDS011;32138;50.966;6.968;2022-11-03T02:00:03;20.40;;;5.63;;
46439;SDS011;32138;50.966;6.968;2022-11-03T02:01:05;13.68;;;5.22;;
46439;SDS011;32138;50.966;6.968;2022-11-03T02:02:06;14.27;;;5.30;;
46439;SDS011;32138;50.966;6.968;2022-11-03T02:03:07;11.55;;;5.40;;
46439;SDS011;32138;50.966;6.968;2022-11-03T02:04:12;18.02;;;5.70;;
46439;SDS011;32138;50.966;6.968;2022-11-03T02:05:25;16.05;;;4.78;;
46439;SDS011;32138;50.966;6.968;2022-11-03T02:06:28;13.32;;;4.72;;
46439;SDS011;32138;50.966;6.968;2022-11-03T02:07:37;14.55;;;4.78;;
46439;SDS011;32138;50.966;6.968;2022-11-03T02:09:11;13.85;;;4.47;;
46439;SDS011;32138;50.966;6.968;2022-11-03T02:10:11;16.13;;;5.07;;
46439;SDS011;32138;50.966;6.968;2022-11-03T02:11:12;12.93;;;5.13;;
46439;SDS011;32138;50.966;6.968;2022-11-03T02:12:32;17.80;;;5.40;;
46439;SDS011;32138;50.966;6.968;2022-11-03T02:13:34;14.95;;;5.15;;
46439;SDS011;32138;50.966;6.968;2022-11-03T02:14:36;12.48;;;4.90;;
46439;SDS011;32138;50.966;6.968;2022-11-03T02:15:43;14.18;;;5.43;;
46439;SDS011;32138;50.966;6.968;2022-11-03T02:16:48;12.82;;;5.85;;
46439;SDS011;32138;50.966;6.968;2022-11-03T02:17:55;12.00;;;5.22;;
46439;SDS011;32138;50.966;6.968;2022-11-03T02:18:58;17.67;;;5.13;;
46439;SDS011;32138;50.966;6.968;2022-11-03T02:21:33;12.80;;;4.78;;
46439;SDS011;32138;50.966;6.968;2022-11-03T02:22:51;16.70;;;5.15;;
46439;SDS011;32138;50.966;6.968;2022-11-03T02:25:41;16.50;;;4.97;;
46439;SDS011;32138;50.966;6.968;2022-11-03T02:26:43;18.35;;;3.78;;
46439;SDS011;32138;50.966;6.968;2022-11-03T02:27:47;15.48;;;5.18;;
46439;SDS011;32138;50.966;6.968;2022-11-03T02:28:48;14.45;;;4.97;;
46439;SDS011;32138;50.966;6.968;2022-11-03T02:29:49;13.18;;;4.78;;
46439;SDS011;32138;50.966;6.968;2022-11-03T02:34:39;11.70;;;4.68;;
46439;SDS011;32138;50.966;6.968;2022-11-03T02:37:02;15.20;;;4.15;;
46439;SDS011;32138;50.966;6.968;2022-11-03T02:38:16;14.65;;;3.90;;
46439;SDS011;32138;50.966;6.968;2022-11-03T02:39:20;14.90;;;4.88;;
46439;SDS011;32138;50.966;6.968;2022-11-03T02:40:34;14.88;;;4.30;;
46439;SDS011;32138;50.966;6.968;2022-11-03T02:41:41;10.88;;;3.97;;
46439;SDS011;32138;50.966;6.968;2022-11-03T02:42:45;13.05;;;4.57;;
46439;SDS011;32138;50.966;6.968;2022-11-03T02:43:50;16.05;;;3.78;;
46439;SDS011;32138;50.966;6.968;2022-11-03T02:44:52;14.98;;;3.50;;
46439;SDS011;32138;50.966;6.968;2022-11-03T02:45:56;14.82;;;3.83;;
46439;SDS011;32138;50.966;6.968;2022-11-03T02:46:58;15.10;;;4.28;;
46439;SDS011;32138;50.966;6.968;2022-11-03T02:48:03;12.18;;;4.10;;
46439;SDS011;32138;50.966;6.968;2022-11-03T02:49:04;15.10;;;4.00;;
46439;SDS011;32138;50.966;6.968;2022-11-03T02:50:06;10.45;;;3.53;;
46439;SDS011;32138;50.966;6.968;2022-11-03T02:51:09;19.65;;;5.28;;
46439;SDS011;32138;50.966;6.968;2022-11-03T02:52:29;13.02;;;3.97;;
46439;SDS011;32138;50.966;6.968;2022-11-03T02:56:57;15.30;;;3.90;;
46439;SDS011;32138;50.966;6.968;2022-11-03T02:59:17;12.68;;;4.00;;
46439;SDS011;32138;50.966;6.968;2022-11-03T03:00:26;12.88;;;3.67;;
46439;SDS011;32138;50.966;6.968;2022-11-03T03:01:32;13.00;;;4.32;;
46439;SDS011;32138;50.966;6.968;2022-11-03T03:02:53;13.68;;;3.70;;
46439;SDS011;32138;50.966;6.968;2022-11-03T03:04:40;10.43;;;3.72;;
46439;SDS011;32138;50.966;6.968;2022-11-03T03:05:46;10.45;;;3.83;;
46439;SDS011;32138;50.966;6.968;2022-11-03T03:06:54;12.07;;;3.60;;
46439;SDS011;32138;50.966;6.968;2022-11-03T03:09:06;8.98;;;3.33;;
46439;SDS011;32138;50.966;6.968;2022-11-03T03:10:19;14.25;;;3.95;;
46439;SDS011;32138;50.966;6.968;2022-11-03T03:11:24;12.25;;;3.30;;
46439;SDS011;32138;50.966;6.968;2022-11-03T03:12:38;10.13;;;4.68;;
46439;SDS011;32138;50.966;6.968;2022-11-03T03:13:44;17.95;;;4.55;;
46439;SDS011;32138;50.966;6.968;2022-11-03T03:14:45;14.23;;;3.70;;
46439;SDS011;32138;50.966;6.968;2022-11-03T03:17:04;12.73;;;3.78;;
46439;SDS011;32138;50.966;6.968;2022-11-03T03:19:34;14.23;;;4.25;;
46439;SDS011;32138;50.966;6.968;2022-11-03T03:20:54;14.25;;;3.65;;
46439;SDS011;32138;50.966;6.968;2022-11-03T03:22:11;13.13;;;4.10;;
46439;SDS011;32138;50.966;6.968;2022-11-03T03:23:32;10.02;;;3.35;;
46439;SDS011;32138;50.966;6.968;2022-11-03T03:24:44;13.70;;;3.38;;
46439;SDS011;32138;50.966;6.968;2022-11-03T03:25:57;12.80;;;3.75;;
46439;SDS011;32138;50.966;6.968;2022-11-03T03:27:26;11.45;;;3.67;;
46439;SDS011;32138;50.966;6.968;2022-11-03T03:28:35;10.23;;;3.92;;
46439;SDS011;32138;50.966;6.968;2022-11-03T03:29:45;15.65;;;4.13;;
46439;SDS011;32138;50.966;6.968;2022-11-03T03:30:52;15.10;;;3.90;;
46439;SDS011;32138;50.966;6.968;2022-11-03T03:31:56;15.18;;;4.68;;
46439;SDS011;32138;50.966;6.968;2022-11-03T03:33:00;16.15;;;3.65;;
46439;SDS011;32138;50.966;6.968;2022-11-03T03:34:04;19.05;;;4.28;;
46439;SDS011;32138;50.966;6.968;2022-11-03T03:35:07;12.35;;;3.58;;
46439;SDS011;32138;50.966;6.968;2022-11-03T03:36:16;11.20;;;4.45;;
46439;SDS011;32138;50.966;6.968;2022-11-03T03:37:19;10.32;;;3.75;;
46439;SDS011;32138;50.966;6.968;2022-11-03T03:38:23;16.80;;;4.35;;
46439;SDS011;32138;50.966;6.968;2022-11-03T03:39:32;12.35;;;4.25;;
46439;SDS011;32138;50.966;6.968;2022-11-03T03:40:37;13.90;;;4.47;;
46439;SDS011;32138;50.966;6.968;2022-11-03T03:41:43;11.68;;;3.47;;
46439;SDS011;32138;50.966;6.968;2022-11-03T03:42:46;13.13;;;4.53;;
46439;SDS011;32138;50.966;6.968;2022-11-03T03:43:48;13.90;;;4.22;;
46439;SDS011;32138;50.966;6.968;2022-11-03T03:44:52;12.88;;;4.32;;
46439;SDS011;32138;50.966;6.968;2022-11-03T03:45:55;11.07;;;3.47;;
46439;SDS011;32138;50.966;6.968;2022-11-03T03:47:03;19.13;;;4.07;;
46439;SDS011;32138;50.966;6.968;2022-11-03T03:48:12;11.45;;;3.97;;
46439;SDS011;32138;50.966;6.968;2022-11-03T03:49:13;12.93;;;4.22;;
46439;SDS011;32138;50.966;6.968;2022-11-03T03:50:13;16.50;;;5.32;;
46439;SDS011;32138;50.966;6.968;2022-11-03T03:51:15;15.02;;;3.60;;
46439;SDS011;32138;50.966;6.968;2022-11-03T03:52:21;13.18;;;4.25;;
46439;SDS011;32138;50.966;6.968;2022-11-03T03:53:26;10.40;;;3.72;;
46439;SDS011;32138;50.966;6.968;2022-11-03T03:54:28;14.80;;;4.05;;
46439;SDS011;32138;50.966;6.968;2022-11-03T03:55:36;13.95;;;4.68;;
46439;SDS011;32138;50.966;6.968;2022-11-03T03:56:44;19.95;;;4.60;;
46439;SDS011;32138;50.966;6.968;2022-11-03T03:57:51;15.40;;;4.22;;
46439;SDS011;32138;50.966;6.968;2022-11-03T03:58:52;18.77;;;3.80;;
46439;SDS011;32138;50.966;6.968;2022-11-03T03:59:52;8.27;;;3.97;;
46439;SDS011;32138;50.966;6.968;2022-11-03T04:00:53;10.35;;;3.53;;
46439;SDS011;32138;50.966;6.968;2022-11-03T04:01:54;11.55;;;3.60;;
46439;SDS011;32138;50.966;6.968;2022-11-03T04:02:55;15.70;;;4.75;;
46439;SDS011;32138;50.966;6.968;2022-11-03T04:03:57;13.73;;;3.58;;
46439;SDS011;32138;50.966;6.968;2022-11-03T04:04:58;20.48;;;4.35;;
46439;SDS011;32138;50.966;6.968;2022-11-03T04:05:58;11.93;;;3.25;;
46439;SDS011;32138;50.966;6.968;2022-11-03T04:06:59;18.52;;;4.38;;
46439;SDS011;32138;50.966;6.968;2022-11-03T04:08:18;13.90;;;3.78;;
46439;SDS011;32138;50.966;6.968;2022-11-03T04:09:19;12.88;;;4.18;;
46439;SDS011;32138;50.966;6.968;2022-11-03T04:10:20;12.85;;;4.05;;
46439;SDS011;32138;50.966;6.968;2022-11-03T04:11:22;12.68;;;4.43;;
46439;SDS011;32138;50.966;6.968;2022-11-03T04:12:41;13.88;;;4.15;;
46439;SDS011;32138;50.966;6.968;2022-11-03T04:14:02;14.00;;;3.42;;
46439;SDS011;32138;50.966;6.968;2022-11-03T04:15:21;16.20;;;3.93;;
46439;SDS011;32138;50.966;6.968;2022-11-03T04:16:40;13.18;;;3.53;;
46439;SDS011;32138;50.966;6.968;2022-11-03T04:18:00;11.93;;;3.83;;
46439;SDS011;32138;50.966;6.968;2022-11-03T04:19:19;11.35;;;3.58;;
46439;SDS011;32138;50.966;6.968;2022-11-03T04:20:38;11.30;;;3.30;;
46439;SDS011;32138;50.966;6.968;2022-11-03T04:22:11;11.55;;;3.78;;
46439;SDS011;32138;50.966;6.968;2022-11-03T04:23:18;10.40;;;4.10;;
46439;SDS011;32138;50.966;6.968;2022-11-03T04:24:19;18.13;;;4.43;;
46439;SDS011;32138;50.966;6.968;2022-11-03T04:25:19;13.40;;;3.90;;
46439;SDS011;32138;50.966;6.968;2022-11-03T04:26:20;12.45;;;3.75;;
46439;SDS011;32138;50.966;6.968;2022-11-03T04:27:28;15.88;;;4.50;;
46439;SDS011;32138;50.966;6.968;2022-11-03T04:28:35;11.85;;;3.92;;
46439;SDS011;32138;50.966;6.968;2022-11-03T04:29:36;13.68;;;3.80;;
46439;SDS011;32138;50.966;6.968;2022-11-03T04:30:37;14.48;;;4.00;;
46439;SDS011;32138;50.966;6.968;2022-11-03T04:31:38;14.20;;;3.78;;
46439;SDS011;32138;50.966;6.968;2022-11-03T04:32:39;16.08;;;4.50;;
46439;SDS011;32138;50.966;6.968;2022-11-03T04:33:39;12.45;;;3.50;;
46439;SDS011;32138;50.966;6.968;2022-11-03T04:34:41;19.20;;;3.75;;
46439;SDS011;32138;50.966;6.968;2022-11-03T04:35:45;16.58;;;5.07;;
46439;SDS011;32138;50.966;6.968;2022-11-03T04:36:46;17.17;;;3.75;;
46439;SDS011;32138;50.966;6.968;2022-11-03T04:37:52;16.63;;;3.85;;
46439;SDS011;32138;50.966;6.968;2022-11-03T04:38:57;12.18;;;4.20;;
46439;SDS011;32138;50.966;6.968;2022-11-03T04:39:58;13.27;;;3.90;;
46439;SDS011;32138;50.966;6.968;2022-11-03T04:41:00;13.70;;;3.65;;
46439;SDS011;32138;50.966;6.968;2022-11-03T04:42:05;10.68;;;3.83;;
46439;SDS011;32138;50.966;6.968;2022-11-03T04:43:20;10.65;;;3.90;;
46439;SDS011;32138;50.966;6.968;2022-11-03T04:44:28;15.57;;;4.32;;
46439;SDS011;32138;50.966;6.968;2022-11-03T04:45:30;13.38;;;4.32;;
46439;SDS011;32138;50.966;6.968;2022-11-03T04:46:37;15.65;;;4.10;;
46439;SDS011;32138;50.966;6.968;2022-11-03T04:47:37;15.32;;;5.45;;
46439;SDS011;32138;50.966;6.968;2022-11-03T04:48:38;14.73;;;2.88;;
46439;SDS011;32138;50.966;6.968;2022-11-03T04:49:39;17.38;;;4.18;;
46439;SDS011;32138;50.966;6.968;2022-11-03T04:50:41;15.48;;;3.58;;
46439;SDS011;32138;50.966;6.968;2022-11-03T04:51:42;12.80;;;3.88;;
46439;SDS011;32138;50.966;6.968;2022-11-03T04:52:43;11.68;;;3.90;;
46439;SDS011;32138;50.966;6.968;2022-11-03T04:53:53;14.88;;;3.50;;
46439;SDS011;32138;50.966;6.968;2022-11-03T04:55:00;11.35;;;3.47;;
46439;SDS011;32138;50.966;6.968;2022-11-03T04:56:01;14.63;;;3.67;;
46439;SDS011;32138;50.966;6.968;2022-11-03T04:57:15;9.13;;;3.30;;
46439;SDS011;32138;50.966;6.968;2022-11-03T04:59:21;17.02;;;4.18;;
46439;SDS011;32138;50.966;6.968;2022-11-03T05:00:22;14.05;;;4.15;;
46439;SDS011;32138;50.966;6.968;2022-11-03T05:01:23;15.25;;;3.80;;
46439;SDS011;32138;50.966;6.968;2022-11-03T05:02:24;12.43;;;3.13;;
46439;SDS011;32138;50.966;6.968;2022-11-03T05:03:26;15.80;;;4.47;;
46439;SDS011;32138;50.966;6.968;2022-11-03T05:04:33;15.88;;;3.45;;
46439;SDS011;32138;50.966;6.968;2022-11-03T05:05:33;11.80;;;3.75;;
46439;SDS011;32138;50.966;6.968;2022-11-03T05:06:34;13.00;;;3.25;;
46439;SDS011;32138;50.966;6.968;2022-11-03T05:07:35;14.07;;;3.50;;
46439;SDS011;32138;50.966;6.968;2022-11-03T05:08:36;12.07;;;3.75;;
46439;SDS011;32138;50.966;6.968;2022-11-03T05:09:36;10.93;;;4.22;;
46439;SDS011;32138;50.966;6.968;2022-11-03T05:10:37;12.32;;;3.88;;
46439;SDS011;32138;50.966;6.968;2022-11-03T05:11:39;12.95;;;3.42;;
46439;SDS011;32138;50.966;6.968;2022-11-03T05:12:48;12.02;;;3.25;;
46439;SDS011;32138;50.966;6.968;2022-11-03T05:13:49;9.27;;;3.38;;
46439;SDS011;32138;50.966;6.968;2022-11-03T05:14:51;14.68;;;3.65;;
46439;SDS011;32138;50.966;6.968;2022-11-03T05:15:53;9.80;;;3.85;;
46439;SDS011;32138;50.966;6.968;2022-11-03T05:17:04;12.80;;;4.00;;
46439;SDS011;32138;50.966;6.968;2022-11-03T05:18:21;7.78;;;3.25;;
46439;SDS011;32138;50.966;6.968;2022-11-03T05:19:37;18.95;;;4.47;;
46439;SDS011;32138;50.966;6.968;2022-11-03T05:20:45;14.65;;;3.85;;
46439;SDS011;32138;50.966;6.968;2022-11-03T05:21:59;9.68;;;3.22;;
46439;SDS011;32138;50.966;6.968;2022-11-03T05:23:02;13.23;;;4.03;;
46439;SDS011;32138;50.966;6.968;2022-11-03T05:24:05;11.98;;;3.65;;
46439;SDS011;32138;50.966;6.968;2022-11-03T05:26:47;10.77;;;3.22;;
46439;SDS011;32138;50.966;6.968;2022-11-03T05:27:48;15.57;;;4.03;;
46439;SDS011;32138;50.966;6.968;2022-11-03T05:28:49;15.85;;;5.13;;
46439;SDS011;32138;50.966;6.968;2022-11-03T05:29:55;11.00;;;3.55;;
46439;SDS011;32138;50.966;6.968;2022-11-03T05:30:59;10.68;;;4.05;;
46439;SDS011;32138;50.966;6.968;2022-11-03T05:32:00;15.40;;;3.88;;
46439;SDS011;32138;50.966;6.968;2022-11-03T05:33:01;14.45;;;3.95;;
46439;SDS011;32138;50.966;6.968;2022-11-03T05:35:31;14.15;;;4.18;;
46439;SDS011;32138;50.966;6.968;2022-11-03T05:36:33;11.70;;;3.85;;
46439;SDS011;32138;50.966;6.968;2022-11-03T05:37:34;10.85;;;3.33;;
46439;SDS011;32138;50.966;6.968;2022-11-03T05:38:35;11.95;;;4.57;;
46439;SDS011;32138;50.966;6.968;2022-11-03T05:39:45;10.20;;;3.05;;
46439;SDS011;32138;50.966;6.968;2022-11-03T05:40:48;12.55;;;3.65;;
46439;SDS011;32138;50.966;6.968;2022-11-03T05:41:51;17.88;;;4.43;;
46439;SDS011;32138;50.966;6.968;2022-11-03T05:42:52;13.00;;;3.22;;
46439;SDS011;32138;50.966;6.968;2022-11-03T05:43:58;9.38;;;3.20;;
46439;SDS011;32138;50.966;6.968;2022-11-03T05:45:25;11.43;;;4.03;;
46439;SDS011;32138;50.966;6.968;2022-11-03T05:46:32;13.38;;;3.63;;
46439;SDS011;32138;50.966;6.968;2022-11-03T05:47:35;13.82;;;3.08;;
46439;SDS011;32138;50.966;6.968;2022-11-03T05:48:38;10.98;;;3.55;;
46439;SDS011;32138;50.966;6.968;2022-11-03T05:49:42;8.27;;;3.03;;
46439;SDS011;32138;50.966;6.968;2022-11-03T05:50:43;9.77;;;3.20;;
46439;SDS011;32138;50.966;6.968;2022-11-03T05:51:44;13.57;;;3.90;;
46439;SDS011;32138;50.966;6.968;2022-11-03T05:52:47;12.43;;;3.50;;
46439;SDS011;32138;50.966;6.968;2022-11-03T05:53:52;16.17;;;3.80;;
46439;SDS011;32138;50.966;6.968;2022-11-03T05:54:57;11.85;;;3.58;;
46439;SDS011;32138;50.966;6.968;2022-11-03T05:55:59;9.27;;;3.60;;
46439;SDS011;32138;50.966;6.968;2022-11-03T05:57:07;10.65;;;3.35;;
46439;SDS011;32138;50.966;6.968;2022-11-03T05:59:31;11.15;;;4.43;;
46439;SDS011;32138;50.966;6.968;2022-11-03T06:00:33;11.82;;;3.85;;
46439;SDS011;32138;50.966;6.968;2022-11-03T06:01:38;14.63;;;3.85;;
46439;SDS011;32138;50.966;6.968;2022-11-03T06:02:40;9.80;;;2.92;;
46439;SDS011;32138;50.966;6.968;2022-11-03T06:03:42;13.77;;;3.45;;
46439;SDS011;32138;50.966;6.968;2022-11-03T06:04:43;12.88;;;4.00;;
46439;SDS011;32138;50.966;6.968;2022-11-03T06:05:45;14.73;;;4.18;;
46439;SDS011;32138;50.966;6.968;2022-11-03T06:06:53;12.55;;;3.70;;
46439;SDS011;32138;50.966;6.968;2022-11-03T06:08:14;16.08;;;3.22;;
46439;SDS011;32138;50.966;6.968;2022-11-03T06:09:21;10.70;;;3.13;;
46439;SDS011;32138;50.966;6.968;2022-11-03T06:10:33;11.73;;;3.70;;
46439;SDS011;32138;50.966;6.968;2022-11-03T06:11:39;11.05;;;3.85;;
46439;SDS011;32138;50.966;6.968;2022-11-03T06:12:40;11.25;;;3.53;;
46439;SDS011;32138;50.966;6.968;2022-11-03T06:13:41;9.90;;;3.92;;
46439;SDS011;32138;50.966;6.968;2022-11-03T06:14:42;14.60;;;4.82;;
46439;SDS011;32138;50.966;6.968;2022-11-03T06:15:44;13.93;;;3.80;;
46439;SDS011;32138;50.966;6.968;2022-11-03T06:16:47;15.88;;;4.07;;
46439;SDS011;32138;50.966;6.968;2022-11-03T06:17:51;15.63;;;4.03;;
46439;SDS011;32138;50.966;6.968;2022-11-03T06:18:52;10.32;;;3.33;;
46439;SDS011;32138;50.966;6.968;2022-11-03T06:19:54;12.65;;;3.88;;
46439;SDS011;32138;50.966;6.968;2022-11-03T06:21:00;12.23;;;3.42;;
46439;SDS011;32138;50.966;6.968;2022-11-03T06:22:26;13.25;;;3.17;;
46439;SDS011;32138;50.966;6.968;2022-11-03T06:23:31;18.27;;;3.78;;
46439;SDS011;32138;50.966;6.968;2022-11-03T06:24:33;15.07;;;3.97;;
46439;SDS011;32138;50.966;6.968;2022-11-03T06:25:34;13.60;;;3.80;;
46439;SDS011;32138;50.966;6.968;2022-11-03T06:26:37;13.10;;;3.08;;
46439;SDS011;32138;50.966;6.968;2022-11-03T06:27:37;10.20;;;3.40;;
46439;SDS011;32138;50.966;6.968;2022-11-03T06:28:38;13.95;;;3.95;;
46439;SDS011;32138;50.966;6.968;2022-11-03T06:29:39;11.63;;;4.15;;
46439;SDS011;32138;50.966;6.968;2022-11-03T06:30:41;11.70;;;3.35;;
46439;SDS011;32138;50.966;6.968;2022-11-03T06:31:43;14.27;;;3.25;;
46439;SDS011;32138;50.966;6.968;2022-11-03T06:32:47;11.80;;;3.95;;
46439;SDS011;32138;50.966;6.968;2022-11-03T06:33:48;16.08;;;4.55;;
46439;SDS011;32138;50.966;6.968;2022-11-03T06:34:51;11.60;;;3.65;;
46439;SDS011;32138;50.966;6.968;2022-11-03T06:35:58;21.65;;;4.00;;
46439;SDS011;32138;50.966;6.968;2022-11-03T06:37:25;11.43;;;3.80;;
46439;SDS011;32138;50.966;6.968;2022-11-03T06:38:32;10.90;;;3.28;;
46439;SDS011;32138;50.966;6.968;2022-11-03T06:39:34;11.85;;;3.05;;
46439;SDS011;32138;50.966;6.968;2022-11-03T06:40:35;11.40;;;3.53;;
46439;SDS011;32138;50.966;6.968;2022-11-03T06:41:37;10.40;;;3.40;;
46439;SDS011;32138;50.966;6.968;2022-11-03T06:42:38;13.57;;;3.55;;
46439;SDS011;32138;50.966;6.968;2022-11-03T06:43:40;11.25;;;4.03;;
46439;SDS011;32138;50.966;6.968;2022-11-03T06:44:43;12.88;;;3.88;;
46439;SDS011;32138;50.966;6.968;2022-11-03T06:45:52;12.23;;;4.00;;
46439;SDS011;32138;50.966;6.968;2022-11-03T06:47:00;14.77;;;4.68;;
46439;SDS011;32138;50.966;6.968;2022-11-03T06:48:12;12.75;;;4.45;;
46439;SDS011;32138;50.966;6.968;2022-11-03T06:51:20;13.40;;;5.38;;
46439;SDS011;32138;50.966;6.968;2022-11-03T06:52:30;12.93;;;5.70;;
46439;SDS011;32138;50.966;6.968;2022-11-03T06:53:38;15.68;;;5.55;;
46439;SDS011;32138;50.966;6.968;2022-11-03T06:54:39;19.63;;;5.00;;